createdAt,value
2019-05-29T00:02:12.067Z,10.33
2019-05-29T00:07:12.223Z,10.22
2019-05-29T00:12:11.927Z,10.16
2019-05-29T00:17:10.409Z,10.05
2019-05-29T00:22:12.421Z,9.94
2019-05-29T00:27:12.904Z,9.88
2019-05-29T00:32:11.955Z,9.77
2019-05-29T00:37:12.553Z,9.72
2019-05-29T00:42:11.195Z,9.66
2019-05-29T00:47:11.573Z,9.55
2019-05-29T00:52:10.444Z,9.44
2019-05-29T00:57:12.856Z,9.38
2019-05-29T01:02:11.903Z,9.33
2019-05-29T01:07:12.272Z,9.27
2019-05-29T01:12:10.790Z,9.27
2019-05-29T01:17:09.459Z,9.22
2019-05-29T01:22:12.317Z,9.16
2019-05-29T01:27:12.806Z,9.11
2019-05-29T01:32:09.809Z,9.05
2019-05-29T01:37:10.270Z,9.05
2019-05-29T01:42:10.907Z,9
2019-05-29T01:47:10.302Z,9
2019-05-29T01:52:10.019Z,9
2019-05-29T01:57:11.873Z,9
2019-05-29T02:02:11.834Z,9
2019-05-29T02:07:10.696Z,9.11
2019-05-29T02:12:11.108Z,9.16
2019-05-29T02:17:09.833Z,9.22
2019-05-29T02:22:10.244Z,9.27
2019-05-29T02:27:10.373Z,9.27
2019-05-29T02:32:10.674Z,9.22
2019-05-29T02:37:10.819Z,9.05
2019-05-29T02:42:11.480Z,8.94
2019-05-29T02:47:10.547Z,8.88
2019-05-29T02:52:11.937Z,8.83
2019-05-29T02:57:11.429Z,8.77
2019-05-29T03:02:10.861Z,8.66
2019-05-29T03:07:10.207Z,8.66
2019-05-29T03:12:10.008Z,8.61
2019-05-29T03:17:09.948Z,8.55
2019-05-29T03:22:10.890Z,8.55
2019-05-29T03:27:09.461Z,8.5
2019-05-29T03:32:14.473Z,8.44
2019-05-29T03:37:10.648Z,8.44
2019-05-29T03:42:11.499Z,8.38
2019-05-29T03:47:11.621Z,8.38
2019-05-29T03:52:11.117Z,8.38
2019-05-29T03:57:11.498Z,8.38
2019-05-29T04:02:11.038Z,8.38
2019-05-29T04:07:11.795Z,8.44
2019-05-29T04:12:10.429Z,8.44
2019-05-29T04:17:11.064Z,8.5
2019-05-29T04:22:10.162Z,8.55
2019-05-29T04:27:10.283Z,8.61
2019-05-29T04:32:11.138Z,8.66
2019-05-29T04:37:10.865Z,8.66
2019-05-29T04:42:09.650Z,8.72
2019-05-29T04:47:11.887Z,8.83
2019-05-29T04:52:10.591Z,9.05
2019-05-29T04:57:09.903Z,9.16
2019-05-29T05:02:11.572Z,9.27
2019-05-29T05:07:10.218Z,9.38
2019-05-29T05:12:10.149Z,9.61
2019-05-29T05:17:25.149Z,9.72
2019-05-29T05:22:10.831Z,9.94
2019-05-29T05:27:10.085Z,10.11
2019-05-29T05:32:11.035Z,10.33
2019-05-29T05:37:11.088Z,10.55
2019-05-29T05:42:10.650Z,10.83
2019-05-29T05:47:10.241Z,11.11
2019-05-29T05:52:10.900Z,11.38
2019-05-29T05:57:09.915Z,11.61
2019-05-29T06:07:10.346Z,11.88
2019-05-29T06:12:10.676Z,12.16
2019-05-29T06:17:08.375Z,12.33
2019-05-29T06:22:10.895Z,12.5
2019-05-29T06:27:10.506Z,12.83
2019-05-29T06:32:09.859Z,13.05
2019-05-29T06:42:10.078Z,13.83
2019-05-29T06:52:11.359Z,14.11
2019-05-29T06:57:10.670Z,14.16
2019-05-29T07:02:08.783Z,14.22
2019-05-29T07:07:10.689Z,14.44
2019-05-29T07:12:10.817Z,14.66
2019-05-29T07:17:09.047Z,14.44
2019-05-29T07:22:10.641Z,14.33
2019-05-29T07:27:13.431Z,14.22
2019-05-29T07:37:09.912Z,14.27
2019-05-29T07:47:10.395Z,15
2019-05-29T07:52:10.315Z,15.16
2019-05-29T07:57:11.105Z,15.33
2019-05-29T08:07:08.656Z,15.61
2019-05-29T08:12:09.226Z,15.61
2019-05-29T08:22:09.938Z,15.66
2019-05-29T08:37:10.155Z,15.77
2019-05-29T08:52:12.392Z,16.61
2019-05-29T08:57:09.417Z,16.94
2019-05-29T09:02:11.235Z,17
2019-05-29T09:07:10.267Z,17.05
2019-05-29T09:12:08.746Z,16.77
2019-05-29T09:22:10.431Z,16.61
2019-05-29T09:27:10.210Z,16.88
2019-05-29T09:32:10.175Z,16.94
2019-05-29T09:42:10.757Z,17.11
2019-05-29T09:47:07.544Z,17.22
2019-05-29T09:52:10.764Z,17.55
2019-05-29T09:57:09.831Z,17.83
2019-05-29T10:07:10.166Z,18
2019-05-29T10:12:10.219Z,18.11
2019-05-29T10:17:12.639Z,18.22
2019-05-29T10:22:10.781Z,18.44
2019-05-29T10:27:10.217Z,18.72
2019-05-29T10:32:10.566Z,19.05
2019-05-29T10:37:09.129Z,19.38
2019-05-29T10:42:09.935Z,19.77
2019-05-29T10:52:15.833Z,19.88
2019-05-29T10:57:10.728Z,19.88
2019-05-29T11:07:10.925Z,20.22
2019-05-29T11:12:10.665Z,20.55
2019-05-29T11:22:25.258Z,21.05
2019-05-29T11:27:10.090Z,20.66
2019-05-29T11:42:26.015Z,20.33
2019-05-29T11:47:10.935Z,20.44
2019-05-29T11:52:23.274Z,20.5
2019-05-29T11:57:09.996Z,20.72
2019-05-29T12:02:10.707Z,20.77
2019-05-29T12:07:10.171Z,20.44
2019-05-29T12:12:10.307Z,20.38
2019-05-29T12:22:10.468Z,21
2019-05-29T12:27:09.826Z,20.88
2019-05-29T12:32:11.197Z,20.83
2019-05-29T12:37:08.890Z,20.83
2019-05-29T12:42:10.411Z,20.66
2019-05-29T12:47:10.107Z,20.83
2019-05-29T12:52:10.868Z,20.83
2019-05-29T12:57:09.010Z,21.05
2019-05-29T13:02:10.226Z,21
2019-05-29T13:07:10.460Z,20.55
2019-05-29T13:12:10.882Z,20.16
2019-05-29T13:17:10.318Z,19.83
2019-05-29T13:22:10.197Z,19.38
2019-05-29T13:27:10.227Z,19.16
2019-05-29T13:32:11.061Z,18.88
2019-05-29T13:37:10.451Z,18.83
2019-05-29T13:42:12.001Z,18.77
2019-05-29T13:47:11.713Z,18.61
2019-05-29T13:52:12.202Z,18.55
2019-05-29T13:57:10.022Z,18.66
2019-05-29T14:02:10.722Z,18.83
2019-05-29T14:07:10.232Z,19.05
2019-05-29T14:12:09.400Z,19.16
2019-05-29T14:17:10.262Z,19.27
2019-05-29T14:22:10.819Z,19.38
2019-05-29T14:27:09.745Z,19.5
2019-05-29T14:32:09.274Z,19.66
2019-05-29T14:37:11.798Z,19.77
2019-05-29T14:42:10.123Z,19.77
2019-05-29T14:47:10.498Z,19.61
2019-05-29T14:52:11.631Z,19.61
2019-05-29T14:57:22.563Z,19.55
2019-05-29T15:12:10.601Z,20
2019-05-29T15:17:11.017Z,20.16
2019-05-29T15:22:11.586Z,20.38
2019-05-29T15:27:09.906Z,20.38
2019-05-29T15:37:12.168Z,20.33
2019-05-29T15:42:10.888Z,20.61
2019-05-29T15:47:08.761Z,20.72
2019-05-29T15:52:11.013Z,20.5
2019-05-29T16:07:09.851Z,19.88
2019-05-29T16:12:10.571Z,19.94
2019-05-29T16:17:10.980Z,20
2019-05-29T16:22:12.243Z,20.22
2019-05-29T16:32:10.004Z,22.5
2019-05-29T16:37:09.495Z,23.77
2019-05-29T17:02:10.367Z,26.33
2019-05-29T17:07:10.564Z,27.61
2019-05-29T17:22:08.818Z,28.77
2019-05-29T17:27:10.475Z,28.72
2019-05-29T17:37:10.305Z,26.88
2019-05-29T17:42:09.168Z,26.11
2019-05-29T17:57:10.672Z,22.72
2019-05-29T18:12:10.894Z,20.77
2019-05-29T18:17:10.118Z,20.38
2019-05-29T18:22:11.126Z,20.22
2019-05-29T18:27:10.683Z,20.22
2019-05-29T18:32:10.287Z,19.72
2019-05-29T18:37:10.266Z,19.38
2019-05-29T18:42:09.947Z,18.88
2019-05-29T18:47:10.153Z,18.83
2019-05-29T18:57:15.379Z,18.72
2019-05-29T19:02:11.106Z,18.27
2019-05-29T19:12:10.791Z,17.61
2019-05-29T19:17:08.806Z,17.33
2019-05-29T19:32:10.557Z,16.61
2019-05-29T19:37:10.626Z,16.38
2019-05-29T19:42:11.038Z,16.22
2019-05-29T19:47:10.616Z,16.05
2019-05-29T19:52:10.574Z,15.77
2019-05-29T19:57:10.111Z,15.5
2019-05-29T20:02:10.436Z,15.27
2019-05-29T20:07:10.647Z,15
2019-05-29T20:12:10.417Z,14.88
2019-05-29T20:22:10.537Z,14.61
2019-05-29T20:27:10.204Z,14.38
2019-05-29T20:32:09.629Z,14.22
2019-05-29T20:37:10.181Z,14.11
2019-05-29T20:42:11.424Z,13.88
2019-05-29T20:47:12.096Z,13.77
2019-05-29T20:52:09.185Z,13.72
2019-05-29T20:57:10.865Z,13.61
2019-05-29T21:02:11.015Z,13.5
2019-05-29T21:07:11.409Z,13.44
2019-05-29T21:12:11.099Z,13.27
2019-05-29T21:17:10.219Z,13.11
2019-05-29T21:22:10.473Z,13
2019-05-29T21:27:10.537Z,12.88
2019-05-29T21:32:09.968Z,12.77
2019-05-29T21:37:10.605Z,12.66
2019-05-29T21:42:10.927Z,12.61
2019-05-29T21:47:10.219Z,12.5
2019-05-29T21:52:10.435Z,12.38
2019-05-29T21:57:10.816Z,12.27
2019-05-29T22:02:10.637Z,12.22
2019-05-29T22:07:09.042Z,12.11
2019-05-29T22:12:10.565Z,12
2019-05-29T22:17:10.348Z,11.88
2019-05-29T22:22:11.606Z,11.83
2019-05-29T22:27:08.462Z,11.72
2019-05-29T22:32:10.930Z,11.66
2019-05-29T22:42:10.871Z,11.5
2019-05-29T22:47:10.955Z,11.38
2019-05-29T22:52:11.302Z,11.33
2019-05-29T22:57:11.095Z,11.22
2019-05-29T23:02:10.364Z,11.16
2019-05-29T23:07:10.807Z,11.05
2019-05-29T23:12:10.783Z,11
2019-05-29T23:17:10.829Z,11
2019-05-29T23:22:10.274Z,10.94
2019-05-29T23:27:10.287Z,10.77
2019-05-29T23:32:11.305Z,10.72
2019-05-29T23:37:13.727Z,10.66
2019-05-29T23:42:09.418Z,10.61
2019-05-29T23:47:11.836Z,10.55
2019-05-29T23:52:11.708Z,10.5
2019-05-29T23:57:13.416Z,10.38
